createdAt,value
2018-12-29T00:01:15.644Z,91.66
2018-12-29T00:03:46.445Z,91.10
2018-12-29T00:06:16.858Z,91.38
2018-12-29T00:08:47.308Z,91.50
2018-12-29T00:11:17.617Z,91.46
2018-12-29T00:13:48.475Z,91.43
2018-12-29T00:16:18.780Z,91.41
2018-12-29T00:18:50.596Z,91.36
2018-12-29T00:21:21.054Z,91.96
2018-12-29T00:23:51.659Z,91.75
2018-12-29T00:26:21.984Z,91.27
2018-12-29T00:28:52.491Z,91.48
2018-12-29T00:31:22.983Z,91.34
2018-12-29T00:33:53.464Z,91.20
2018-12-29T00:36:24.953Z,91.33
2018-12-29T00:38:55.307Z,91.17
2018-12-29T00:41:25.828Z,91.30
2018-12-29T00:43:56.483Z,91.17
2018-12-29T00:46:27.345Z,91.54
2018-12-29T00:48:58.185Z,91.15
2018-12-29T00:51:28.991Z,90.99
2018-12-29T00:53:59.464Z,91.16
2018-12-29T00:56:29.812Z,91.43
2018-12-29T00:59:00.303Z,92.10
2018-12-29T01:01:30.681Z,91.43
2018-12-29T01:04:00.977Z,91.43
2018-12-29T01:06:31.464Z,91.01
2018-12-29T01:09:02.717Z,90.98
2018-12-29T01:11:33.197Z,91.15
2018-12-29T01:14:03.631Z,90.30
2018-12-29T01:16:34.178Z,90.46
2018-12-29T01:19:05.363Z,90.46
2018-12-29T01:21:35.822Z,90.67
2018-12-29T01:24:06.784Z,90.55
2018-12-29T01:26:37.696Z,90.23
2018-12-29T01:29:08.287Z,89.96
2018-12-29T01:31:38.971Z,89.47
2018-12-29T01:34:09.364Z,89.31
2018-12-29T01:36:40.146Z,89.45
2018-12-29T01:39:11.010Z,89.28
2018-12-29T01:41:41.690Z,89.43
2018-12-29T01:44:12.171Z,89.64
2018-12-29T01:46:42.755Z,89.44
2018-12-29T01:49:13.619Z,89.60
2018-12-29T01:51:44.036Z,89.90
2018-12-29T01:54:14.508Z,89.53
2018-12-29T01:56:45.054Z,89.04
2018-12-29T01:59:15.409Z,88.88
2018-12-29T02:01:46.759Z,90.10
2018-12-29T02:04:17.076Z,89.90
2018-12-29T02:06:47.890Z,89.65
2018-12-29T02:09:18.321Z,89.67
2018-12-29T02:11:48.765Z,89.68
2018-12-29T02:14:19.683Z,89.42
2018-12-29T02:16:50.663Z,88.93
2018-12-29T02:19:21.015Z,88.83
2018-12-29T02:21:51.774Z,89.02
2018-12-29T02:24:22.148Z,88.56
2018-12-29T02:26:52.656Z,89.12
2018-12-29T02:29:23.648Z,89.26
2018-12-29T02:31:54.014Z,89.35
2018-12-29T02:34:24.360Z,88.77
2018-12-29T02:36:54.898Z,88.85
2018-12-29T02:39:25.411Z,89.11
2018-12-29T02:41:55.656Z,89.04
2018-12-29T02:44:26.410Z,89.03
2018-12-29T02:46:56.942Z,88.78
2018-12-29T02:49:27.464Z,89.51
2018-12-29T02:51:57.886Z,89.06
2018-12-29T02:54:28.536Z,89.30
2018-12-29T02:56:58.931Z,89.54
2018-12-29T02:59:29.497Z,89.04
2018-12-29T03:01:59.989Z,89.27
2018-12-29T03:04:30.323Z,89.33
2018-12-29T03:07:00.706Z,89.04
2018-12-29T03:09:31.079Z,89.50
2018-12-29T03:12:01.958Z,89.33
2018-12-29T03:14:32.234Z,89.47
2018-12-29T03:17:02.998Z,88.98
2018-12-29T03:19:33.590Z,89.67
2018-12-29T03:22:04.455Z,90.30
2018-12-29T03:24:35.140Z,89.49
2018-12-29T03:27:05.592Z,89.44
2018-12-29T03:29:35.955Z,89.36
2018-12-29T03:32:06.397Z,89.69
2018-12-29T03:34:36.660Z,89.50
2018-12-29T03:37:06.936Z,90.05
2018-12-29T03:39:37.688Z,89.32
2018-12-29T03:42:08.662Z,89.71
2018-12-29T03:44:39.079Z,89.65
2018-12-29T03:47:09.356Z,89.40
2018-12-29T03:49:39.990Z,89.02
2018-12-29T03:52:10.614Z,89.05
2018-12-29T03:54:41.296Z,88.02
2018-12-29T03:57:11.637Z,88.98
2018-12-29T03:59:42.049Z,88.94
2018-12-29T04:02:12.269Z,88.52
2018-12-29T04:04:42.500Z,87.96
2018-12-29T04:07:12.932Z,88.43
2018-12-29T04:09:43.263Z,88.65
2018-12-29T04:12:27.846Z,88.11
2018-12-29T04:14:58.239Z,87.94
2018-12-29T04:17:29.003Z,88.79
2018-12-29T04:19:59.293Z,87.65
2018-12-29T04:22:30.512Z,87.64
2018-12-29T04:25:00.755Z,87.32
2018-12-29T04:27:31.845Z,88.17
2018-12-29T04:30:02.183Z,88.19
2018-12-29T04:32:32.435Z,87.50
2018-12-29T04:35:02.871Z,87.28
2018-12-29T04:37:33.835Z,87.79
2018-12-29T04:40:04.771Z,87.47
2018-12-29T04:42:35.060Z,87.00
2018-12-29T04:45:05.483Z,87.52
2018-12-29T04:47:35.830Z,87.04
2018-12-29T04:50:06.922Z,87.33
2018-12-29T04:52:37.216Z,87.50
2018-12-29T04:55:07.921Z,87.10
2018-12-29T04:57:38.161Z,87.40
2018-12-29T05:00:09.758Z,87.75
2018-12-29T05:02:40.105Z,87.51
2018-12-29T05:05:10.657Z,87.99
2018-12-29T05:07:41.816Z,87.96
2018-12-29T05:10:12.515Z,88.04
2018-12-29T05:12:42.921Z,88.14
2018-12-29T05:15:13.219Z,88.46
2018-12-29T05:17:43.588Z,89.44
2018-12-29T05:20:14.833Z,88.72
2018-12-29T05:22:45.555Z,89.08
2018-12-29T05:25:15.942Z,88.67
2018-12-29T05:27:46.314Z,89.17
2018-12-29T05:30:16.524Z,89.17
2018-12-29T05:32:46.974Z,88.71
2018-12-29T05:35:17.215Z,88.24
2018-12-29T05:37:47.673Z,88.64
2018-12-29T05:40:18.214Z,89.15
2018-12-29T05:42:48.605Z,89.02
2018-12-29T05:45:19.256Z,89.19
2018-12-29T05:47:49.839Z,89.49
2018-12-29T05:50:20.183Z,89.36
2018-12-29T05:52:50.426Z,89.56
2018-12-29T05:55:20.941Z,89.54
2018-12-29T05:57:51.344Z,90.26
2018-12-29T06:00:21.661Z,90.11
2018-12-29T06:02:52.142Z,90.04
2018-12-29T06:05:22.671Z,90.17
2018-12-29T06:07:52.992Z,89.80
2018-12-29T06:10:23.423Z,90.08
2018-12-29T06:12:53.939Z,90.25
2018-12-29T06:15:24.200Z,90.17
2018-12-29T06:17:54.546Z,90.39
2018-12-29T06:20:25.026Z,90.34
2018-12-29T06:22:55.557Z,90.70
2018-12-29T06:25:26.225Z,90.00
2018-12-29T06:27:57.297Z,89.98
2018-12-29T06:30:27.884Z,90.06
2018-12-29T06:32:58.385Z,90.28
2018-12-29T06:35:28.887Z,90.23
2018-12-29T06:37:59.170Z,90.37
2018-12-29T06:40:29.927Z,90.40
2018-12-29T06:43:00.174Z,89.97
2018-12-29T06:45:30.488Z,89.86
2018-12-29T06:48:01.341Z,90.02
2018-12-29T06:50:31.938Z,89.98
2018-12-29T06:53:02.198Z,89.93
2018-12-29T06:55:34.900Z,90.34
2018-12-29T06:58:05.230Z,90.33
2018-12-29T07:00:35.651Z,90.04
2018-12-29T07:03:06.379Z,90.20
2018-12-29T07:05:36.962Z,90.05
2018-12-29T07:08:07.545Z,90.12
2018-12-29T07:10:38.035Z,90.13
2018-12-29T07:13:08.851Z,90.17
2018-12-29T07:15:39.473Z,90.12
2018-12-29T07:18:10.392Z,90.30
2018-12-29T07:20:41.233Z,89.97
2018-12-29T07:23:11.804Z,90.63
2018-12-29T07:27:06.175Z,90.38
2018-12-29T07:29:38.303Z,90.57
2018-12-29T07:32:08.774Z,90.84
2018-12-29T07:34:39.391Z,90.81
2018-12-29T07:37:09.986Z,90.81
2018-12-29T07:39:40.685Z,90.57
2018-12-29T07:42:11.061Z,90.55
2018-12-29T07:45:21.351Z,90.38
2018-12-29T07:47:52.035Z,90.53
2018-12-29T07:50:22.953Z,90.90
2018-12-29T07:52:53.478Z,91.11
2018-12-29T07:55:23.904Z,91.07
2018-12-29T07:57:54.168Z,91.17
2018-12-29T08:00:24.568Z,90.81
2018-12-29T08:02:55.095Z,90.65
2018-12-29T08:05:25.549Z,91.03
2018-12-29T08:07:57.322Z,90.53
2018-12-29T08:10:28.342Z,90.50
2018-12-29T08:12:59.077Z,90.44
2018-12-29T08:15:29.538Z,90.69
2018-12-29T08:17:59.980Z,90.76
2018-12-29T08:20:30.465Z,90.62
2018-12-29T08:23:00.809Z,90.45
2018-12-29T08:25:31.898Z,90.61
2018-12-29T08:28:02.331Z,90.51
2018-12-29T08:30:32.617Z,90.66
2018-12-29T08:33:03.273Z,90.85
2018-12-29T08:35:34.715Z,91.14
2018-12-29T08:38:05.054Z,90.90
2018-12-29T08:40:35.547Z,90.69
2018-12-29T08:43:06.039Z,90.46
2018-12-29T08:45:36.520Z,90.55
2018-12-29T08:48:07.315Z,90.72
2018-12-29T08:50:37.978Z,90.23
2018-12-29T08:53:08.739Z,89.90
2018-12-29T08:55:42.122Z,90.14
2018-12-29T08:58:12.618Z,90.75
2018-12-29T09:01:02.568Z,90.48
2018-12-29T09:03:33.360Z,90.88
2018-12-29T09:06:03.800Z,90.34
2018-12-29T09:08:34.509Z,90.47
2018-12-29T09:11:05.433Z,90.14
2018-12-29T09:13:35.978Z,89.99
2018-12-29T09:16:06.589Z,90.27
2018-12-29T09:18:36.857Z,90.66
2018-12-29T09:21:07.442Z,89.47
2018-12-29T09:23:38.146Z,90.30
2018-12-29T09:26:09.139Z,90.09
2018-12-29T09:28:40.017Z,89.43
2018-12-29T09:31:10.750Z,89.47
2018-12-29T09:33:41.348Z,89.10
2018-12-29T09:36:11.883Z,88.19
2018-12-29T09:38:42.325Z,88.57
2018-12-29T09:41:13.139Z,88.69
2018-12-29T09:43:43.674Z,88.71
2018-12-29T09:46:14.119Z,87.87
2018-12-29T09:48:44.721Z,88.29
2018-12-29T09:51:15.178Z,89.36
2018-12-29T09:53:45.419Z,89.12
2018-12-29T09:56:16.163Z,87.88
2018-12-29T09:58:46.510Z,88.26
2018-12-29T10:01:17.262Z,88.60
2018-12-29T10:03:48.086Z,88.88
2018-12-29T10:06:18.603Z,88.43
2018-12-29T10:08:49.155Z,88.23
2018-12-29T10:11:19.574Z,87.93
2018-12-29T10:13:50.094Z,87.70
2018-12-29T10:16:20.698Z,87.67
2018-12-29T10:18:51.458Z,88.22
2018-12-29T10:21:21.970Z,88.90
2018-12-29T10:23:52.344Z,88.56
2018-12-29T10:26:23.139Z,88.55
2018-12-29T10:28:53.534Z,88.44
2018-12-29T10:31:23.872Z,88.89
2018-12-29T10:33:55.406Z,88.44
2018-12-29T10:36:25.763Z,87.62
2018-12-29T10:38:56.217Z,88.19
2018-12-29T10:41:26.606Z,88.67
2018-12-29T10:43:57.055Z,88.55
2018-12-29T10:46:27.753Z,88.07
2018-12-29T10:48:58.144Z,88.15
2018-12-29T10:51:28.414Z,88.35
2018-12-29T10:53:58.937Z,88.07
2018-12-29T10:56:29.601Z,88.38
2018-12-29T10:58:59.908Z,88.28
2018-12-29T11:01:30.291Z,87.90
2018-12-29T11:04:00.897Z,87.59
2018-12-29T11:06:31.107Z,88.01
2018-12-29T11:09:01.712Z,87.53
2018-12-29T11:11:32.340Z,87.78
2018-12-29T11:14:02.692Z,88.08
2018-12-29T11:16:35.101Z,88.07
2018-12-29T11:19:05.711Z,88.24
2018-12-29T11:21:36.239Z,88.34
2018-12-29T11:24:07.293Z,88.09
2018-12-29T11:26:37.625Z,88.30
2018-12-29T11:29:08.340Z,88.52
2018-12-29T11:31:38.703Z,87.94
2018-12-29T11:34:09.364Z,87.93
2018-12-29T11:36:40.099Z,88.37
2018-12-29T11:39:10.319Z,88.25
2018-12-29T11:41:41.213Z,88.20
2018-12-29T11:44:11.504Z,87.81
2018-12-29T11:46:41.804Z,87.63
2018-12-29T11:49:18.038Z,88.13
2018-12-29T11:51:44.610Z,88.45
2018-12-29T11:54:14.904Z,88.44
2018-12-29T11:56:45.281Z,88.89
2018-12-29T11:59:15.663Z,88.73
2018-12-29T12:01:46.230Z,88.98
2018-12-29T12:04:16.649Z,88.49
2018-12-29T12:06:47.059Z,88.53
2018-12-29T12:09:17.805Z,88.49
2018-12-29T12:11:48.188Z,88.75
2018-12-29T12:14:19.876Z,88.56
2018-12-29T12:16:50.175Z,88.60
2018-12-29T12:19:21.133Z,88.81
2018-12-29T12:21:51.518Z,88.64
2018-12-29T12:24:21.936Z,88.89
2018-12-29T12:26:52.268Z,88.68
2018-12-29T12:29:22.669Z,88.75
2018-12-29T12:31:52.852Z,88.76
2018-12-29T12:34:23.329Z,88.64
2018-12-29T12:36:53.638Z,88.89
2018-12-29T12:39:24.140Z,89.19
2018-12-29T12:41:54.581Z,89.12
2018-12-29T12:44:25.017Z,88.67
2018-12-29T12:46:55.302Z,88.97
2018-12-29T12:49:25.940Z,88.61
2018-12-29T12:51:56.296Z,88.73
2018-12-29T12:54:26.786Z,88.88
2018-12-29T12:56:57.040Z,88.61
2018-12-29T12:59:27.644Z,88.73
2018-12-29T13:01:58.142Z,88.48
2018-12-29T13:04:28.569Z,88.23
2018-12-29T13:06:59.348Z,88.17
2018-12-29T13:09:29.595Z,88.39
2018-12-29T13:12:00.084Z,88.41
2018-12-29T13:14:30.359Z,88.45
2018-12-29T13:17:00.745Z,88.78
2018-12-29T13:19:31.053Z,88.46
2018-12-29T13:22:01.283Z,88.55
2018-12-29T13:24:31.701Z,88.81
2018-12-29T13:27:02.031Z,88.73
2018-12-29T13:29:32.630Z,88.86
2018-12-29T13:32:03.083Z,88.60
2018-12-29T13:34:33.455Z,88.76
2018-12-29T13:37:03.773Z,88.76
2018-12-29T13:39:34.429Z,88.51
2018-12-29T13:42:04.712Z,89.08
2018-12-29T13:44:35.061Z,89.14
2018-12-29T13:47:05.779Z,88.83
2018-12-29T13:49:36.064Z,88.93
2018-12-29T13:52:06.449Z,88.98
2018-12-29T13:54:36.671Z,89.25
2018-12-29T13:57:06.937Z,89.04
2018-12-29T13:59:37.301Z,89.04
2018-12-29T14:02:08.028Z,88.90
2018-12-29T14:04:38.388Z,88.94
2018-12-29T14:07:08.607Z,88.87
2018-12-29T14:09:38.839Z,88.94
2018-12-29T14:12:09.148Z,89.07
2018-12-29T14:14:39.465Z,89.04
2018-12-29T14:17:09.823Z,88.99
2018-12-29T14:19:40.279Z,88.89
2018-12-29T14:22:10.815Z,88.66
2018-12-29T14:24:41.424Z,88.78
2018-12-29T14:27:11.895Z,88.74
2018-12-29T14:29:42.229Z,89.10
2018-12-29T14:32:12.583Z,88.91
2018-12-29T14:34:42.822Z,88.64
2018-12-29T14:37:13.063Z,88.50
2018-12-29T14:39:43.316Z,88.90
2018-12-29T14:42:13.948Z,88.86
2018-12-29T14:44:44.175Z,89.01
2018-12-29T14:47:14.576Z,89.15
2018-12-29T14:49:44.960Z,89.02
2018-12-29T14:52:15.282Z,89.15
2018-12-29T14:54:45.759Z,89.10
2018-12-29T14:57:36.048Z,89.06
2018-12-29T15:00:06.701Z,89.12
2018-12-29T15:02:37.013Z,89.22
2018-12-29T15:05:07.451Z,89.13
2018-12-29T15:07:38.359Z,89.32
2018-12-29T15:10:09.018Z,89.24
2018-12-29T15:12:39.307Z,89.30
2018-12-29T15:15:09.985Z,89.18
2018-12-29T15:17:40.625Z,89.25
2018-12-29T15:20:11.340Z,89.11
2018-12-29T15:22:41.834Z,89.16
2018-12-29T15:25:12.361Z,89.14
2018-12-29T15:27:43.548Z,89.23
2018-12-29T15:30:13.919Z,89.36
2018-12-29T15:32:44.384Z,89.31
2018-12-29T15:35:15.244Z,89.44
2018-12-29T15:37:45.417Z,89.55
2018-12-29T15:40:16.088Z,89.71
2018-12-29T15:42:46.525Z,89.62
2018-12-29T15:45:16.913Z,89.62
2018-12-29T15:47:47.546Z,89.66
2018-12-29T15:50:18.180Z,89.86
2018-12-29T15:52:48.970Z,89.97
2018-12-29T15:55:19.402Z,90.08
2018-12-29T15:57:49.942Z,90.00
2018-12-29T16:00:20.543Z,89.92
2018-12-29T16:02:51.347Z,90.14
2018-12-29T16:05:21.554Z,90.37
2018-12-29T16:07:52.193Z,90.53
2018-12-29T16:10:22.471Z,90.73
2018-12-29T16:12:52.931Z,90.88
2018-12-29T16:15:23.681Z,90.85
2018-12-29T16:17:54.036Z,90.88
2018-12-29T16:20:24.266Z,90.85
2018-12-29T16:22:54.845Z,90.97
2018-12-29T16:25:25.367Z,90.87
2018-12-29T16:27:55.690Z,90.80
2018-12-29T16:30:26.391Z,90.83
2018-12-29T16:32:57.087Z,90.81
2018-12-29T16:35:27.368Z,90.75
2018-12-29T16:37:58.095Z,90.70
2018-12-29T16:40:28.467Z,90.55
2018-12-29T16:42:58.830Z,90.46
2018-12-29T16:45:30.162Z,90.51
2018-12-29T16:48:00.624Z,90.50
2018-12-29T16:50:31.311Z,90.39
2018-12-29T16:53:01.689Z,90.44
2018-12-29T16:55:32.061Z,90.43
2018-12-29T16:58:02.568Z,90.45
2018-12-29T17:00:32.827Z,90.46
2018-12-29T17:03:03.141Z,90.44
2018-12-29T17:05:33.432Z,90.50
2018-12-29T17:08:06.744Z,90.42
2018-12-29T17:10:37.053Z,90.28
2018-12-29T17:13:07.306Z,90.14
2018-12-29T17:15:38.270Z,90.30
2018-12-29T17:18:10.403Z,90.24
2018-12-29T17:20:41.097Z,90.34
2018-12-29T17:23:12.501Z,90.52
2018-12-29T17:25:43.338Z,90.58
2018-12-29T17:28:13.604Z,90.69
2018-12-29T17:30:44.592Z,90.88
2018-12-29T17:33:14.986Z,90.98
2018-12-29T17:35:45.324Z,90.92
2018-12-29T17:38:15.947Z,91.03
2018-12-29T17:40:46.194Z,91.09
2018-12-29T17:43:16.644Z,91.14
2018-12-29T17:45:46.848Z,91.08
2018-12-29T17:48:17.160Z,91.09
2018-12-29T17:50:47.488Z,91.17
2018-12-29T17:53:18.236Z,91.17
2018-12-29T17:55:48.489Z,91.32
2018-12-29T17:58:18.901Z,91.32
2018-12-29T18:00:49.601Z,91.38
2018-12-29T18:03:19.924Z,91.45
2018-12-29T18:05:50.607Z,91.64
2018-12-29T18:08:20.775Z,91.74
2018-12-29T18:10:51.303Z,91.72
2018-12-29T18:13:21.991Z,91.73
2018-12-29T18:15:52.495Z,91.63
2018-12-29T18:18:22.945Z,91.55
2018-12-29T18:20:53.245Z,91.28
2018-12-29T18:23:23.618Z,91.22
2018-12-29T18:25:53.802Z,91.29
2018-12-29T18:28:24.153Z,91.44
2018-12-29T18:30:54.531Z,91.50
2018-12-29T18:33:24.768Z,91.50
2018-12-29T18:35:55.379Z,91.61
2018-12-29T18:38:26.083Z,91.60
2018-12-29T18:40:56.299Z,91.65
2018-12-29T18:43:26.652Z,91.74
2018-12-29T18:45:57.024Z,91.91
2018-12-29T18:48:27.330Z,91.89
2018-12-29T18:50:57.937Z,92.12
2018-12-29T18:53:28.567Z,92.42
2018-12-29T18:55:58.935Z,92.31
2018-12-29T18:58:29.184Z,92.47
2018-12-29T19:00:59.674Z,92.48
2018-12-29T19:03:29.963Z,92.23
2018-12-29T19:06:01.106Z,92.21
2018-12-29T19:08:31.399Z,92.19
2018-12-29T19:11:01.867Z,92.41
2018-12-29T19:13:32.197Z,92.26
2018-12-29T19:16:02.776Z,92.36
2018-12-29T19:18:33.216Z,92.01
2018-12-29T19:21:03.399Z,92.07
2018-12-29T19:23:34.161Z,92.12
2018-12-29T19:26:05.963Z,91.91
2018-12-29T19:28:36.628Z,91.85
2018-12-29T19:31:07.357Z,91.80
2018-12-29T19:33:38.402Z,91.82
2018-12-29T19:36:08.995Z,91.65
2018-12-29T19:38:39.320Z,91.40
2018-12-29T19:41:10.193Z,90.86
2018-12-29T19:43:40.943Z,91.07
2018-12-29T19:46:11.813Z,90.96
2018-12-29T19:48:42.257Z,91.25
2018-12-29T19:51:12.620Z,91.59
2018-12-29T19:53:43.197Z,91.42
2018-12-29T19:56:13.557Z,91.30
2018-12-29T19:58:43.907Z,91.43
2018-12-29T20:01:14.373Z,91.50
2018-12-29T20:03:44.729Z,91.35
2018-12-29T20:06:15.398Z,91.50
2018-12-29T20:08:45.758Z,91.43
2018-12-29T20:11:16.082Z,91.65
2018-12-29T20:13:46.538Z,91.51
2018-12-29T20:16:16.787Z,91.38
2018-12-29T20:18:47.488Z,91.56
2018-12-29T20:21:17.730Z,91.65
2018-12-29T20:23:48.043Z,91.49
2018-12-29T20:26:18.631Z,91.51
2018-12-29T20:28:49.246Z,91.53
2018-12-29T20:31:19.762Z,91.63
2018-12-29T20:33:50.043Z,91.54
2018-12-29T20:36:20.600Z,91.45
2018-12-29T20:38:51.003Z,91.49
2018-12-29T20:41:21.761Z,91.66
2018-12-29T20:43:52.073Z,91.54
2018-12-29T20:46:22.372Z,91.48
2018-12-29T20:48:52.759Z,91.73
2018-12-29T20:51:23.025Z,91.50
2018-12-29T20:53:53.687Z,91.55
2018-12-29T20:56:24.109Z,91.85
2018-12-29T20:58:54.880Z,92.08
2018-12-29T21:01:25.744Z,92.52
2018-12-29T21:03:56.185Z,92.39
2018-12-29T21:06:26.731Z,92.74
2018-12-29T21:08:56.940Z,92.85
2018-12-29T21:11:27.329Z,92.43
2018-12-29T21:13:57.671Z,92.35
2018-12-29T21:17:26.318Z,92.43
2018-12-29T21:19:57.357Z,92.08
2018-12-29T21:22:27.596Z,92.07
2018-12-29T21:24:58.077Z,92.05
2018-12-29T21:27:28.357Z,91.70
2018-12-29T21:29:58.788Z,91.74
2018-12-29T21:32:29.928Z,91.78
2018-12-29T21:35:00.245Z,91.74
2018-12-29T21:37:30.544Z,92.09
2018-12-29T21:40:00.922Z,92.55
2018-12-29T21:42:31.124Z,92.82
2018-12-29T21:45:03.890Z,92.90
2018-12-29T21:47:33.815Z,93.10
2018-12-29T21:50:04.248Z,93.24
2018-12-29T21:52:34.435Z,93.76
2018-12-29T21:55:04.882Z,93.79
2018-12-29T21:57:35.264Z,94.13
2018-12-29T22:00:06.449Z,94.39
2018-12-29T22:02:36.705Z,94.54
2018-12-29T22:05:07.157Z,94.64
2018-12-29T22:07:37.620Z,94.85
2018-12-29T22:10:08.624Z,95.00
2018-12-29T22:12:39.347Z,95.15
2018-12-29T22:15:09.737Z,95.19
2018-12-29T22:17:40.243Z,95.37
2018-12-29T22:20:10.804Z,95.53
2018-12-29T22:22:41.072Z,95.70
2018-12-29T22:25:11.378Z,95.70
2018-12-29T22:27:42.119Z,95.74
2018-12-29T22:30:12.713Z,95.85
2018-12-29T22:32:43.308Z,95.99
2018-12-29T22:35:13.934Z,96.01
2018-12-29T22:38:21.221Z,96.03
2018-12-29T22:40:51.388Z,96.04
2018-12-29T22:43:21.605Z,96.12
2018-12-29T22:45:51.950Z,96.21
2018-12-29T22:48:22.173Z,96.22
2018-12-29T22:50:52.732Z,96.28
2018-12-29T22:53:23.250Z,96.31
2018-12-29T22:55:53.668Z,96.32
2018-12-29T22:58:24.620Z,96.29
2018-12-29T23:00:55.200Z,96.32
2018-12-29T23:03:25.604Z,96.30
2018-12-29T23:05:55.850Z,96.30
2018-12-29T23:08:26.452Z,96.28
2018-12-29T23:10:56.960Z,96.33
2018-12-29T23:13:27.339Z,96.34
2018-12-29T23:15:57.592Z,96.28
2018-12-29T23:18:27.778Z,96.26
2018-12-29T23:20:58.107Z,96.25
2018-12-29T23:23:28.859Z,96.22
2018-12-29T23:25:59.426Z,96.26
2018-12-29T23:28:29.657Z,96.23
2018-12-29T23:31:00.581Z,96.29
2018-12-29T23:33:30.927Z,96.20
2018-12-29T23:36:01.174Z,96.20
2018-12-29T23:38:31.330Z,96.19
2018-12-29T23:41:01.646Z,96.16
2018-12-29T23:43:31.824Z,96.11
2018-12-29T23:46:02.080Z,96.18
2018-12-29T23:48:32.371Z,96.17
2018-12-29T23:51:05.602Z,96.16
2018-12-29T23:53:34.988Z,96.10
2018-12-29T23:56:05.818Z,96.02
2018-12-29T23:58:36.056Z,95.91
